Map

Track Data

SID SEASON NUMBER BASIN SUBBASIN NAME ISO_TIME NATURE LAT LON WMO_WIND WMO_PRES WMO_AGENCY TRACK_TYPE DIST2LAND LANDFALL IFLAG USA_AGENCY USA_ATCF_ID USA_LAT USA_LON USA_RECORD USA_STATUS USA_WIND USA_PRES USA_SSHS USA_R34_NE USA_R34_SE USA_R34_SW USA_R34_NW USA_R50_NE USA_R50_SE USA_R50_SW USA_R50_NW USA_R64_NE USA_R64_SE USA_R64_SW USA_R64_NW USA_POCI USA_ROCI USA_RMW USA_EYE TOKYO_LAT TOKYO_LON TOKYO_GRADE TOKYO_WIND TOKYO_PRES TOKYO_R50_DIR TOKYO_R50_LONG TOKYO_R50_SHORT TOKYO_R30_DIR TOKYO_R30_LONG TOKYO_R30_SHORT TOKYO_LAND CMA_LAT CMA_LON CMA_CAT CMA_WIND CMA_PRES HKO_LAT HKO_LON HKO_CAT HKO_WIND HKO_PRES NEWDELHI_LAT NEWDELHI_LON NEWDELHI_GRADE NEWDELHI_WIND NEWDELHI_PRES NEWDELHI_CI NEWDELHI_DP NEWDELHI_POCI REUNION_LAT REUNION_LON REUNION_TYPE REUNION_WIND REUNION_PRES REUNION_TNUM REUNION_CI REUNION_RMW REUNION_R34_NE REUNION_R34_SE REUNION_R34_SW REUNION_R34_NW REUNION_R50_NE REUNION_R50_SE REUNION_R50_SW REUNION_R50_NW REUNION_R64_NE REUNION_R64_SE REUNION_R64_SW REUNION_R64_NW BOM_LAT BOM_LON BOM_TYPE BOM_WIND BOM_PRES BOM_TNUM BOM_CI BOM_RMW BOM_R34_NE BOM_R34_SE BOM_R34_SW BOM_R34_NW BOM_R50_NE BOM_R50_SE BOM_R50_SW BOM_R50_NW BOM_R64_NE BOM_R64_SE BOM_R64_SW BOM_R64_NW BOM_ROCI BOM_POCI BOM_EYE BOM_POS_METHOD BOM_PRES_METHOD NADI_LAT NADI_LON NADI_CAT NADI_WIND NADI_PRES WELLINGTON_LAT WELLINGTON_LON WELLINGTON_WIND WELLINGTON_PRES DS824_LAT DS824_LON DS824_STAGE DS824_WIND DS824_PRES TD9636_LAT TD9636_LON TD9636_STAGE TD9636_WIND TD9636_PRES TD9635_LAT TD9635_LON TD9635_WIND TD9635_PRES TD9635_ROCI NEUMANN_LAT NEUMANN_LON NEUMANN_CLASS NEUMANN_WIND NEUMANN_PRES MLC_LAT MLC_LON MLC_CLASS MLC_WIND MLC_PRES USA_GUST BOM_GUST BOM_GUST_PER REUNION_GUST REUNION_GUST_PER USA_SEAHGT USA_SEARAD_NE USA_SEARAD_SE USA_SEARAD_SW USA_SEARAD_NW STORM_SPEED STORM_DIR
1975176N33308 1975 47 NA NA NOT_NAMED 1975-06-24 12:00:00 TS 32.5000 -52.0000 20 hurdat_atl main 1572 1571 O_____________ hurdat_atl AL011975 32.5000 -52.0000 TD 20 -1 5 282
1975176N33308 1975 47 NA NA NOT_NAMED 1975-06-24 15:00:00 TS 32.5500 -52.2850 main 1560 1559 P_____________ AL011975 32.5500 -52.2850 TD 22 -1 5 281
1975176N33308 1975 47 NA NA NOT_NAMED 1975-06-24 18:00:00 TS 32.6000 -52.6000 25 hurdat_atl main 1559 1558 O_____________ hurdat_atl AL011975 32.6000 -52.6000 TD 25 -1 6 280
1975176N33308 1975 47 NA NA NOT_NAMED 1975-06-24 21:00:00 TS 32.6501 -52.9450 main 1547 1547 P_____________ AL011975 32.6501 -52.9450 TD 25 -1 5 281
1975176N33308 1975 47 NA NA NOT_NAMED 1975-06-25 00:00:00 TS 32.7000 -53.2000 25 hurdat_atl main 1547 1547 O_____________ hurdat_atl AL011975 32.7000 -53.2000 TD 25 -1 2 298
1975176N33308 1975 47 NA NA NOT_NAMED 1975-06-25 03:00:00 TS 32.7419 -53.1479 main 1547 1535 P_____________ AL011975 32.7419 -53.1479 TD 25 -1 1 0
1975176N33308 1975 47 NA NA NOT_NAMED 1975-06-25 06:00:00 TS 32.8000 -53.2000 25 hurdat_atl main 1535 1505 O_____________ hurdat_atl AL011975 32.8000 -53.2000 TD 25 -1 6 287
1975176N33308 1975 47 NA NA NOT_NAMED 1975-06-25 09:00:00 TS 32.9088 -53.8044 main 1505 1470 P_____________ AL011975 32.9088 -53.8044 TD 25 -1 11 280
1975176N33308 1975 47 NA NA NOT_NAMED 1975-06-25 12:00:00 TS 33.0000 -54.5000 25 hurdat_atl main 1470 1461 O_____________ hurdat_atl AL011975 33.0000 -54.5000 TD 25 -1 9 277
1975176N33308 1975 47 NA NA NOT_NAMED 1975-06-25 15:00:00 TS 33.0144 -54.8528 main 1457 1451 P_____________ AL011975 33.0144 -54.8528 TD 27 -1 5 270
1975176N33308 1975 47 NA NA NOT_NAMED 1975-06-25 18:00:00 TS 33.0000 -55.1000 30 hurdat_atl main 1451 1442 O_____________ hurdat_atl AL011975 33.0000 -55.1000 TD 30 -1 5 268
1975176N33308 1975 47 NA NA NOT_NAMED 1975-06-25 21:00:00 TS 32.9999 -55.4000 main 1442 1434 P_____________ AL011975 32.9999 -55.4000 TD 30 -1 5 270
1975176N33308 1975 47 NA NA NOT_NAMED 1975-06-26 00:00:00 TS 33.0000 -55.7000 30 hurdat_atl main 1434 1420 O_____________ hurdat_atl AL011975 33.0000 -55.7000 TD 30 -1 5 270
1975176N33308 1975 47 NA NA NOT_NAMED 1975-06-26 03:00:00 TS 32.9999 -55.9925 main 1420 1405 P_____________ AL011975 32.9999 -55.9925 TD 30 -1 5 270
1975176N33308 1975 47 NA NA NOT_NAMED 1975-06-26 06:00:00 TS 33.0000 -56.3000 30 hurdat_atl main 1405 1391 O_____________ hurdat_atl AL011975 33.0000 -56.3000 TD 30 -1 6 273
1975176N33308 1975 47 NA NA NOT_NAMED 1975-06-26 09:00:00 TS 33.0301 -56.6647 main 1386 1372 P_____________ AL011975 33.0301 -56.6647 TD 30 -1 6 270
1975176N33308 1975 47 NA NA NOT_NAMED 1975-06-26 12:00:00 TS 33.0000 -57.0000 30 hurdat_atl main 1372 1368 O_____________ hurdat_atl AL011975 33.0000 -57.0000 TD 30 -1 5 247
1975176N33308 1975 47 NA NA NOT_NAMED 1975-06-26 15:00:00 TS 32.8298 -57.2226 main 1383 1379 P_____________ AL011975 32.8298 -57.2226 TD 30 -1 5 220
1975176N33308 1975 47 NA NA NOT_NAMED 1975-06-26 18:00:00 TS 32.6000 -57.4000 30 hurdat_atl main 1394 1394 O_____________ hurdat_atl AL011975 32.6000 -57.4000 TD 30 -1 5 216
1975176N33308 1975 47 NA NA NOT_NAMED 1975-06-26 21:00:00 TS 32.3925 -57.6075 main 1406 1406 P_____________ AL011975 32.3925 -57.6075 TD 27 -1 5 220
1975176N33308 1975 47 NA NA NOT_NAMED 1975-06-27 00:00:00 TS 32.2000 -57.8000 25 hurdat_atl main 1417 1417 O_____________ hurdat_atl AL011975 32.2000 -57.8000 TD 25 -1 4 220
1975176N33308 1975 47 NA NA NOT_NAMED 1975-06-27 03:00:00 TS 32.0499 -57.9498 main 1434 1430 P_____________ AL011975 32.0499 -57.9498 TD 25 -1 4 220
1975176N33308 1975 47 NA NA NOT_NAMED 1975-06-27 06:00:00 TS 31.9000 -58.1000 25 hurdat_atl main 1436 1436 O_____________ hurdat_atl AL011975 31.9000 -58.1000 TD 25 -1 6 219
1975176N33308 1975 47 NA NA NOT_NAMED 1975-06-27 09:00:00 TS 31.6025 -58.3749 main 1456 1456 P_____________ AL011975 31.6025 -58.3749 TD 25 -1 5 220
1975176N33308 1975 47 NA NA NOT_NAMED 1975-06-27 12:00:00 TS 31.5000 -58.5000 25 hurdat_atl main 1462 1429 O_____________ hurdat_atl AL011975 31.5000 -58.5000 TD 25 -1 3 21
1975176N33308 1975 47 NA NA NOT_NAMED 1975-06-27 15:00:00 TS 31.8952 -58.2406 main 1432 1387 P_____________ AL011975 31.8952 -58.2406 TD 25 -1 12 31
1975176N33308 1975 47 NA NA NOT_NAMED 1975-06-27 18:00:00 TS 32.5000 -57.8000 25 hurdat_atl main 1387 1355 O_____________ hurdat_atl AL011975 32.5000 -57.8000 TD 25 -1 13 33
1975176N33308 1975 47 NA NA NOT_NAMED 1975-06-27 21:00:00 TS 33.0000 -57.3998 main 1355 1324 P_____________ AL011975 33.0000 -57.3998 TD 25 -1 12 34
1975176N33308 1975 47 NA NA NOT_NAMED 1975-06-28 00:00:00 TS 33.5000 -57.0000 25 hurdat_atl main 1324 1291 O_____________ hurdat_atl AL011975 33.5000 -57.0000 TD 25 -1 12 32
1975176N33308 1975 47 NA NA NOT_NAMED 1975-06-28 03:00:00 TS 33.9998 -56.6493 main 1296 1258 P_____________ AL011975 33.9998 -56.6493 TD 27 -1 12 30
1975176N33308 1975 47 NA NA NOT_NAMED 1975-06-28 06:00:00 TS 34.5000 -56.3000 30 hurdat_atl main 1258 1217 O_____________ hurdat_atl AL011975 34.5000 -56.3000 TD 30 -1 12 35
1975176N33308 1975 47 NA NA NOT_NAMED 1975-06-28 09:00:00 TS 34.9854 -55.8262 main 1220 1177 P_____________ AL011975 34.9854 -55.8262 TD 30 -1 12 33
1975176N33308 1975 47 NA NA NOT_NAMED 1975-06-28 12:00:00 TS 35.5000 -55.5000 30 hurdat_atl main 1177 1116 O_____________ hurdat_atl AL011975 35.5000 -55.5000 TD 30 -1 11 11
1975176N33308 1975 47 NA NA NOT_NAMED 1975-06-28 15:00:00 TS 36.0924 -55.5586 main 1112 1044 P_____________ AL011975 36.0924 -55.5586 TD 30 -1 12 348
1975176N33308 1975 47 NA NA NOT_NAMED 1975-06-28 18:00:00 TS 36.7000 -55.8000 30 hurdat_atl main 1044 985 O_____________ hurdat_atl AL011975 36.7000 -55.8000 TD 30 -1 12 343
1975176N33308 1975 47 NA NA NOT_NAMED 1975-06-28 21:00:00 TS 37.2575 -55.9927 main 975 917 P_____________ AL011975 37.2575 -55.9927 TD 27 -1 11 344
1975176N33308 1975 47 NA NA NOT_NAMED 1975-06-29 00:00:00 TS 37.8000 -56.2000 25 hurdat_atl main 917 859 O_____________ hurdat_atl AL011975 37.8000 -56.2000 TD 25 -1 11 344
1975176N33308 1975 47 NA NA NOT_NAMED 1975-06-29 03:00:00 TS 38.3500 -56.4003 main 859 792 P_____________ AL011975 38.3500 -56.4003 TD 25 -1 11 344
1975176N33308 1975 47 NA NA NOT_NAMED 1975-06-29 06:00:00 TS 38.9000 -56.6000 25 hurdat_atl main 792 734 O_____________ hurdat_atl AL011975 38.9000 -56.6000 TD 25 -1 11 344
1975176N33308 1975 47 NA NA NOT_NAMED 1975-06-29 09:00:00 TS 39.4501 -56.7994 main 724 667 P_____________ AL011975 39.4501 -56.7994 TD 22 -1 11 344
1975176N33308 1975 47 NA NA NOT_NAMED 1975-06-29 12:00:00 TS 40.0000 -57.0000 20 hurdat_atl main 667 O_____________ hurdat_atl AL011975 40.0000 -57.0000 TD 20 -1 11 345

About IBTrACS Database

This database is a web-friendly format of International Best Track Archive for Climate Stewardship (IBTrACS), a global best track data archive curated by NOAA dating back to 1842.

Updated: 2021-10-08